sensor_id;sensor_type;location;lat;lon;timestamp;P1;durP1;ratioP1;P2;durP2;ratioP2
67344;SDS011;54230;52.402;6.276;2022-11-15T00:00:00;26.3;;;12.9;;
67344;SDS011;54230;52.402;6.276;2022-11-15T00:05:00;26.3;;;13.4;;
67344;SDS011;54230;52.402;6.276;2022-11-15T00:10:00;27.7;;;13.5;;
67344;SDS011;54230;52.402;6.276;2022-11-15T00:15:00;27.6;;;13.5;;
67344;SDS011;54230;52.402;6.276;2022-11-15T00:20:00;27.8;;;13.6;;
67344;SDS011;54230;52.402;6.276;2022-11-15T00:25:00;26.5;;;13.3;;
67344;SDS011;54230;52.402;6.276;2022-11-15T00:30:00;29.0;;;13.7;;
67344;SDS011;54230;52.402;6.276;2022-11-15T00:35:00;29.4;;;14.2;;
67344;SDS011;54230;52.402;6.276;2022-11-15T00:40:00;27.8;;;13.6;;
67344;SDS011;54230;52.402;6.276;2022-11-15T00:45:00;29.4;;;13.4;;
67344;SDS011;54230;52.402;6.276;2022-11-15T00:50:00;30.9;;;14.1;;
67344;SDS011;54230;52.402;6.276;2022-11-15T00:55:00;30.5;;;14.3;;
67344;SDS011;54230;52.402;6.276;2022-11-15T01:00:00;28.4;;;13.6;;
67344;SDS011;54230;52.402;6.276;2022-11-15T01:05:00;30.4;;;14.2;;
67344;SDS011;54230;52.402;6.276;2022-11-15T01:10:00;30.5;;;14.7;;
67344;SDS011;54230;52.402;6.276;2022-11-15T01:15:00;30.6;;;13.7;;
67344;SDS011;54230;52.402;6.276;2022-11-15T01:20:00;34.7;;;14.7;;
67344;SDS011;54230;52.402;6.276;2022-11-15T01:25:00;34.6;;;14.6;;
67344;SDS011;54230;52.402;6.276;2022-11-15T01:30:00;34.0;;;14.9;;
67344;SDS011;54230;52.402;6.276;2022-11-15T01:35:00;38.9;;;15.7;;
67344;SDS011;54230;52.402;6.276;2022-11-15T01:40:00;34.4;;;15.5;;
67344;SDS011;54230;52.402;6.276;2022-11-15T01:45:00;37.9;;;15.7;;
67344;SDS011;54230;52.402;6.276;2022-11-15T01:50:00;38.2;;;16.5;;
67344;SDS011;54230;52.402;6.276;2022-11-15T01:55:01;42.7;;;16.3;;
67344;SDS011;54230;52.402;6.276;2022-11-15T02:00:00;37.9;;;15.7;;
67344;SDS011;54230;52.402;6.276;2022-11-15T02:05:00;39.5;;;17.2;;
67344;SDS011;54230;52.402;6.276;2022-11-15T02:10:02;43.0;;;17.0;;
67344;SDS011;54230;52.402;6.276;2022-11-15T02:15:00;43.9;;;17.6;;
67344;SDS011;54230;52.402;6.276;2022-11-15T02:25:01;43.8;;;18.4;;
67344;SDS011;54230;52.402;6.276;2022-11-15T02:35:01;48.2;;;18.7;;
67344;SDS011;54230;52.402;6.276;2022-11-15T02:40:01;49.7;;;19.6;;
67344;SDS011;54230;52.402;6.276;2022-11-15T02:45:00;46.8;;;18.8;;
67344;SDS011;54230;52.402;6.276;2022-11-15T02:50:00;48.3;;;19.3;;
67344;SDS011;54230;52.402;6.276;2022-11-15T02:55:00;48.5;;;19.3;;
67344;SDS011;54230;52.402;6.276;2022-11-15T03:00:02;45.5;;;19.7;;
67344;SDS011;54230;52.402;6.276;2022-11-15T03:05:02;53.5;;;20.8;;
67344;SDS011;54230;52.402;6.276;2022-11-15T03:10:02;48.9;;;20.7;;
67344;SDS011;54230;52.402;6.276;2022-11-15T03:15:00;50.6;;;20.3;;
67344;SDS011;54230;52.402;6.276;2022-11-15T03:20:00;48.3;;;19.6;;
67344;SDS011;54230;52.402;6.276;2022-11-15T03:25:00;52.1;;;20.7;;
67344;SDS011;54230;52.402;6.276;2022-11-15T03:30:00;52.8;;;20.6;;
67344;SDS011;54230;52.402;6.276;2022-11-15T03:35:00;49.7;;;20.3;;
67344;SDS011;54230;52.402;6.276;2022-11-15T03:40:00;51.6;;;20.5;;
67344;SDS011;54230;52.402;6.276;2022-11-15T03:45:01;51.3;;;20.9;;
67344;SDS011;54230;52.402;6.276;2022-11-15T03:50:01;54.0;;;21.6;;
67344;SDS011;54230;52.402;6.276;2022-11-15T03:55:00;48.6;;;20.1;;
67344;SDS011;54230;52.402;6.276;2022-11-15T04:00:00;49.2;;;20.8;;
67344;SDS011;54230;52.402;6.276;2022-11-15T04:05:00;46.5;;;19.7;;
67344;SDS011;54230;52.402;6.276;2022-11-15T04:10:00;42.3;;;20.3;;
67344;SDS011;54230;52.402;6.276;2022-11-15T04:15:00;39.2;;;18.9;;
67344;SDS011;54230;52.402;6.276;2022-11-15T04:20:00;40.3;;;18.6;;
67344;SDS011;54230;52.402;6.276;2022-11-15T04:25:00;39.5;;;18.7;;
67344;SDS011;54230;52.402;6.276;2022-11-15T04:30:00;39.6;;;18.5;;
67344;SDS011;54230;52.402;6.276;2022-11-15T04:35:00;39.0;;;18.3;;
67344;SDS011;54230;52.402;6.276;2022-11-15T04:40:00;39.7;;;18.2;;
67344;SDS011;54230;52.402;6.276;2022-11-15T04:45:00;37.6;;;16.6;;
67344;SDS011;54230;52.402;6.276;2022-11-15T04:50:00;40.3;;;18.2;;
67344;SDS011;54230;52.402;6.276;2022-11-15T04:55:00;40.7;;;17.6;;
67344;SDS011;54230;52.402;6.276;2022-11-15T05:00:00;38.1;;;17.6;;
67344;SDS011;54230;52.402;6.276;2022-11-15T05:05:00;41.7;;;18.2;;
67344;SDS011;54230;52.402;6.276;2022-11-15T05:10:00;41.9;;;18.4;;
67344;SDS011;54230;52.402;6.276;2022-11-15T05:15:00;41.3;;;18.2;;
67344;SDS011;54230;52.402;6.276;2022-11-15T05:20:00;39.4;;;17.9;;
67344;SDS011;54230;52.402;6.276;2022-11-15T05:25:00;37.7;;;17.5;;
67344;SDS011;54230;52.402;6.276;2022-11-15T05:30:00;38.4;;;17.7;;
67344;SDS011;54230;52.402;6.276;2022-11-15T05:35:00;37.8;;;17.7;;
67344;SDS011;54230;52.402;6.276;2022-11-15T05:40:00;37.9;;;17.4;;
67344;SDS011;54230;52.402;6.276;2022-11-15T05:45:00;37.1;;;17.6;;
67344;SDS011;54230;52.402;6.276;2022-11-15T05:50:00;38.3;;;17.5;;
67344;SDS011;54230;52.402;6.276;2022-11-15T05:55:00;40.5;;;17.6;;
67344;SDS011;54230;52.402;6.276;2022-11-15T06:00:00;34.9;;;17.3;;
67344;SDS011;54230;52.402;6.276;2022-11-15T06:05:00;32.6;;;16.4;;
67344;SDS011;54230;52.402;6.276;2022-11-15T06:10:00;33.9;;;16.9;;
67344;SDS011;54230;52.402;6.276;2022-11-15T06:15:00;36.3;;;16.6;;
67344;SDS011;54230;52.402;6.276;2022-11-15T06:20:00;35.6;;;16.2;;
67344;SDS011;54230;52.402;6.276;2022-11-15T06:25:00;33.5;;;16.6;;
67344;SDS011;54230;52.402;6.276;2022-11-15T06:30:00;35.4;;;17.2;;
67344;SDS011;54230;52.402;6.276;2022-11-15T06:35:00;34.6;;;17.0;;
67344;SDS011;54230;52.402;6.276;2022-11-15T06:40:00;36.3;;;17.0;;
67344;SDS011;54230;52.402;6.276;2022-11-15T06:45:00;39.0;;;16.4;;
67344;SDS011;54230;52.402;6.276;2022-11-15T06:50:00;37.0;;;16.5;;
67344;SDS011;54230;52.402;6.276;2022-11-15T06:55:00;36.9;;;16.2;;
67344;SDS011;54230;52.402;6.276;2022-11-15T07:00:00;34.1;;;16.5;;
67344;SDS011;54230;52.402;6.276;2022-11-15T07:05:00;37.5;;;16.8;;
67344;SDS011;54230;52.402;6.276;2022-11-15T07:10:00;35.2;;;17.2;;
67344;SDS011;54230;52.402;6.276;2022-11-15T07:15:00;35.9;;;16.7;;
67344;SDS011;54230;52.402;6.276;2022-11-15T07:20:00;35.6;;;17.1;;
67344;SDS011;54230;52.402;6.276;2022-11-15T07:25:00;40.3;;;17.7;;
67344;SDS011;54230;52.402;6.276;2022-11-15T07:30:00;37.3;;;17.2;;
67344;SDS011;54230;52.402;6.276;2022-11-15T07:35:00;42.0;;;18.6;;
67344;SDS011;54230;52.402;6.276;2022-11-15T07:40:00;41.1;;;18.0;;
67344;SDS011;54230;52.402;6.276;2022-11-15T07:45:00;41.0;;;17.8;;
67344;SDS011;54230;52.402;6.276;2022-11-15T07:50:00;39.6;;;17.9;;
67344;SDS011;54230;52.402;6.276;2022-11-15T07:55:00;40.9;;;18.3;;
67344;SDS011;54230;52.402;6.276;2022-11-15T08:00:00;42.5;;;18.8;;
67344;SDS011;54230;52.402;6.276;2022-11-15T08:05:00;42.9;;;18.7;;
67344;SDS011;54230;52.402;6.276;2022-11-15T08:10:00;40.3;;;17.9;;
67344;SDS011;54230;52.402;6.276;2022-11-15T08:15:00;40.7;;;18.1;;
67344;SDS011;54230;52.402;6.276;2022-11-15T08:20:00;39.1;;;17.5;;
67344;SDS011;54230;52.402;6.276;2022-11-15T08:25:00;34.8;;;17.4;;
67344;SDS011;54230;52.402;6.276;2022-11-15T08:30:00;36.4;;;16.9;;
67344;SDS011;54230;52.402;6.276;2022-11-15T08:35:00;34.3;;;16.5;;
67344;SDS011;54230;52.402;6.276;2022-11-15T08:40:00;32.2;;;16.3;;
67344;SDS011;54230;52.402;6.276;2022-11-15T08:45:00;33.3;;;16.1;;
67344;SDS011;54230;52.402;6.276;2022-11-15T08:50:00;32.3;;;16.1;;
67344;SDS011;54230;52.402;6.276;2022-11-15T08:55:00;30.9;;;15.6;;
67344;SDS011;54230;52.402;6.276;2022-11-15T09:00:00;33.4;;;15.4;;
67344;SDS011;54230;52.402;6.276;2022-11-15T09:05:00;31.9;;;14.6;;
67344;SDS011;54230;52.402;6.276;2022-11-15T09:10:00;27.9;;;13.4;;
67344;SDS011;54230;52.402;6.276;2022-11-15T09:15:00;26.4;;;12.7;;
67344;SDS011;54230;52.402;6.276;2022-11-15T09:20:00;25.2;;;11.8;;
67344;SDS011;54230;52.402;6.276;2022-11-15T09:25:00;21.5;;;11.5;;
67344;SDS011;54230;52.402;6.276;2022-11-15T09:30:00;24.1;;;11.6;;
67344;SDS011;54230;52.402;6.276;2022-11-15T09:35:00;21.9;;;11.1;;
67344;SDS011;54230;52.402;6.276;2022-11-15T09:40:00;22.9;;;11.4;;
67344;SDS011;54230;52.402;6.276;2022-11-15T09:45:06;22.3;;;10.8;;
67344;SDS011;54230;52.402;6.276;2022-11-15T09:50:00;21.2;;;11.5;;
67344;SDS011;54230;52.402;6.276;2022-11-15T09:55:00;20.6;;;10.6;;
67344;SDS011;54230;52.402;6.276;2022-11-15T10:00:04;19.8;;;10.6;;
67344;SDS011;54230;52.402;6.276;2022-11-15T10:05:00;20.8;;;10.7;;
67344;SDS011;54230;52.402;6.276;2022-11-15T10:10:00;19.4;;;9.6;;
67344;SDS011;54230;52.402;6.276;2022-11-15T10:15:00;18.8;;;9.5;;
67344;SDS011;54230;52.402;6.276;2022-11-15T10:20:02;13.8;;;7.7;;
67344;SDS011;54230;52.402;6.276;2022-11-15T10:25:01;13.0;;;6.6;;
67344;SDS011;54230;52.402;6.276;2022-11-15T10:30:00;12.7;;;6.6;;
67344;SDS011;54230;52.402;6.276;2022-11-15T10:35:00;12.2;;;6.0;;
67344;SDS011;54230;52.402;6.276;2022-11-15T10:40:03;12.8;;;6.9;;
67344;SDS011;54230;52.402;6.276;2022-11-15T10:45:00;14.3;;;7.0;;
67344;SDS011;54230;52.402;6.276;2022-11-15T10:50:01;13.3;;;6.7;;
67344;SDS011;54230;52.402;6.276;2022-11-15T10:55:01;9.2;;;5.1;;
67344;SDS011;54230;52.402;6.276;2022-11-15T11:00:00;10.8;;;5.3;;
67344;SDS011;54230;52.402;6.276;2022-11-15T11:05:00;9.3;;;5.1;;
67344;SDS011;54230;52.402;6.276;2022-11-15T11:10:01;10.0;;;4.9;;
67344;SDS011;54230;52.402;6.276;2022-11-15T11:15:00;9.0;;;4.5;;
67344;SDS011;54230;52.402;6.276;2022-11-15T11:20:01;8.4;;;4.3;;
67344;SDS011;54230;52.402;6.276;2022-11-15T11:25:04;8.7;;;4.5;;
67344;SDS011;54230;52.402;6.276;2022-11-15T11:30:03;7.5;;;4.4;;
67344;SDS011;54230;52.402;6.276;2022-11-15T11:35:02;10.1;;;4.6;;
67344;SDS011;54230;52.402;6.276;2022-11-15T11:40:03;7.8;;;4.2;;
67344;SDS011;54230;52.402;6.276;2022-11-15T11:45:01;8.2;;;4.1;;
67344;SDS011;54230;52.402;6.276;2022-11-15T11:50:00;7.5;;;3.8;;
67344;SDS011;54230;52.402;6.276;2022-11-15T11:55:02;7.8;;;3.8;;
67344;SDS011;54230;52.402;6.276;2022-11-15T12:00:01;6.9;;;3.6;;
67344;SDS011;54230;52.402;6.276;2022-11-15T12:05:03;6.4;;;3.5;;
67344;SDS011;54230;52.402;6.276;2022-11-15T12:10:01;8.1;;;3.5;;
67344;SDS011;54230;52.402;6.276;2022-11-15T12:15:01;5.5;;;3.0;;
67344;SDS011;54230;52.402;6.276;2022-11-15T12:20:02;5.1;;;2.8;;
67344;SDS011;54230;52.402;6.276;2022-11-15T12:25:00;5.2;;;2.4;;
67344;SDS011;54230;52.402;6.276;2022-11-15T12:30:02;6.4;;;2.6;;
67344;SDS011;54230;52.402;6.276;2022-11-15T12:35:00;4.6;;;2.3;;
67344;SDS011;54230;52.402;6.276;2022-11-15T12:40:04;4.4;;;2.0;;
67344;SDS011;54230;52.402;6.276;2022-11-15T12:45:00;7.1;;;2.7;;
67344;SDS011;54230;52.402;6.276;2022-11-15T12:50:00;6.2;;;2.6;;
67344;SDS011;54230;52.402;6.276;2022-11-15T12:55:00;4.3;;;2.2;;
67344;SDS011;54230;52.402;6.276;2022-11-15T13:00:00;3.5;;;1.7;;
67344;SDS011;54230;52.402;6.276;2022-11-15T13:10:00;3.4;;;1.4;;
67344;SDS011;54230;52.402;6.276;2022-11-15T13:15:00;4.6;;;1.7;;
67344;SDS011;54230;52.402;6.276;2022-11-15T13:25:00;4.4;;;1.4;;
67344;SDS011;54230;52.402;6.276;2022-11-15T13:30:13;3.0;;;1.3;;
67344;SDS011;54230;52.402;6.276;2022-11-15T13:35:00;4.6;;;1.4;;
67344;SDS011;54230;52.402;6.276;2022-11-15T13:45:00;2.9;;;1.4;;
67344;SDS011;54230;52.402;6.276;2022-11-15T13:50:00;3.5;;;1.3;;
67344;SDS011;54230;52.402;6.276;2022-11-15T13:55:00;5.0;;;1.5;;
67344;SDS011;54230;52.402;6.276;2022-11-15T14:00:01;3.0;;;1.5;;
67344;SDS011;54230;52.402;6.276;2022-11-15T14:05:01;3.5;;;1.5;;
67344;SDS011;54230;52.402;6.276;2022-11-15T14:15:01;3.7;;;1.7;;
67344;SDS011;54230;52.402;6.276;2022-11-15T14:20:00;4.5;;;2.0;;
67344;SDS011;54230;52.402;6.276;2022-11-15T14:25:05;5.4;;;2.4;;
67344;SDS011;54230;52.402;6.276;2022-11-15T14:30:00;5.4;;;2.4;;
67344;SDS011;54230;52.402;6.276;2022-11-15T14:35:00;5.5;;;2.2;;
67344;SDS011;54230;52.402;6.276;2022-11-15T14:40:00;5.0;;;2.3;;
67344;SDS011;54230;52.402;6.276;2022-11-15T14:45:00;5.3;;;2.5;;
67344;SDS011;54230;52.402;6.276;2022-11-15T14:50:00;6.2;;;2.6;;
67344;SDS011;54230;52.402;6.276;2022-11-15T14:55:00;5.1;;;2.3;;
67344;SDS011;54230;52.402;6.276;2022-11-15T15:00:00;4.0;;;2.0;;
67344;SDS011;54230;52.402;6.276;2022-11-15T15:05:00;4.8;;;2.0;;
67344;SDS011;54230;52.402;6.276;2022-11-15T15:10:00;6.2;;;2.1;;
67344;SDS011;54230;52.402;6.276;2022-11-15T15:15:00;6.1;;;2.3;;
67344;SDS011;54230;52.402;6.276;2022-11-15T15:20:00;4.7;;;2.3;;
67344;SDS011;54230;52.402;6.276;2022-11-15T15:25:00;5.9;;;2.3;;
67344;SDS011;54230;52.402;6.276;2022-11-15T15:30:00;6.9;;;2.3;;
67344;SDS011;54230;52.402;6.276;2022-11-15T15:35:00;7.3;;;2.6;;
67344;SDS011;54230;52.402;6.276;2022-11-15T15:40:00;9.5;;;3.0;;
67344;SDS011;54230;52.402;6.276;2022-11-15T15:45:00;8.8;;;3.0;;
67344;SDS011;54230;52.402;6.276;2022-11-15T15:50:00;5.0;;;2.1;;
67344;SDS011;54230;52.402;6.276;2022-11-15T15:55:00;6.3;;;2.2;;
67344;SDS011;54230;52.402;6.276;2022-11-15T16:00:00;5.6;;;2.2;;
67344;SDS011;54230;52.402;6.276;2022-11-15T16:05:00;6.2;;;2.3;;
67344;SDS011;54230;52.402;6.276;2022-11-15T16:10:00;4.8;;;2.4;;
67344;SDS011;54230;52.402;6.276;2022-11-15T16:15:00;5.5;;;2.1;;
67344;SDS011;54230;52.402;6.276;2022-11-15T16:20:00;6.6;;;2.3;;
67344;SDS011;54230;52.402;6.276;2022-11-15T16:25:00;4.8;;;2.1;;
67344;SDS011;54230;52.402;6.276;2022-11-15T16:30:00;4.9;;;2.3;;
67344;SDS011;54230;52.402;6.276;2022-11-15T16:35:00;5.5;;;2.4;;
67344;SDS011;54230;52.402;6.276;2022-11-15T16:40:00;7.5;;;2.5;;
67344;SDS011;54230;52.402;6.276;2022-11-15T16:45:00;6.8;;;2.7;;
67344;SDS011;54230;52.402;6.276;2022-11-15T16:50:00;5.1;;;2.3;;
67344;SDS011;54230;52.402;6.276;2022-11-15T16:55:00;5.9;;;2.0;;
67344;SDS011;54230;52.402;6.276;2022-11-15T17:00:00;5.9;;;2.3;;
67344;SDS011;54230;52.402;6.276;2022-11-15T17:05:00;5.6;;;2.0;;
67344;SDS011;54230;52.402;6.276;2022-11-15T17:10:00;6.7;;;2.0;;
67344;SDS011;54230;52.402;6.276;2022-11-15T17:15:00;5.1;;;2.0;;
67344;SDS011;54230;52.402;6.276;2022-11-15T17:20:00;5.1;;;2.1;;
67344;SDS011;54230;52.402;6.276;2022-11-15T17:25:00;6.1;;;1.9;;
67344;SDS011;54230;52.402;6.276;2022-11-15T17:30:00;4.8;;;1.9;;
67344;SDS011;54230;52.402;6.276;2022-11-15T17:35:00;4.6;;;1.7;;
67344;SDS011;54230;52.402;6.276;2022-11-15T17:40:00;3.9;;;1.6;;
67344;SDS011;54230;52.402;6.276;2022-11-15T17:45:00;8.3;;;2.0;;
67344;SDS011;54230;52.402;6.276;2022-11-15T17:50:00;4.6;;;1.8;;
67344;SDS011;54230;52.402;6.276;2022-11-15T17:55:00;4.4;;;1.7;;
67344;SDS011;54230;52.402;6.276;2022-11-15T18:00:00;5.2;;;1.8;;
67344;SDS011;54230;52.402;6.276;2022-11-15T18:05:00;5.2;;;2.0;;
67344;SDS011;54230;52.402;6.276;2022-11-15T18:10:00;4.6;;;1.9;;
67344;SDS011;54230;52.402;6.276;2022-11-15T18:15:00;5.0;;;1.8;;
67344;SDS011;54230;52.402;6.276;2022-11-15T18:20:00;5.7;;;2.1;;
67344;SDS011;54230;52.402;6.276;2022-11-15T18:25:00;6.8;;;2.1;;
67344;SDS011;54230;52.402;6.276;2022-11-15T18:30:00;4.6;;;2.5;;
67344;SDS011;54230;52.402;6.276;2022-11-15T18:35:00;5.0;;;2.4;;
67344;SDS011;54230;52.402;6.276;2022-11-15T18:40:00;6.2;;;2.2;;
67344;SDS011;54230;52.402;6.276;2022-11-15T18:45:00;5.7;;;2.3;;
67344;SDS011;54230;52.402;6.276;2022-11-15T18:50:00;4.6;;;2.1;;
67344;SDS011;54230;52.402;6.276;2022-11-15T18:55:00;5.3;;;2.3;;
67344;SDS011;54230;52.402;6.276;2022-11-15T19:00:00;4.6;;;2.3;;
67344;SDS011;54230;52.402;6.276;2022-11-15T19:05:00;4.6;;;2.2;;
67344;SDS011;54230;52.402;6.276;2022-11-15T19:10:00;5.9;;;2.3;;
67344;SDS011;54230;52.402;6.276;2022-11-15T19:15:00;7.1;;;2.6;;
67344;SDS011;54230;52.402;6.276;2022-11-15T19:20:00;4.9;;;2.5;;
67344;SDS011;54230;52.402;6.276;2022-11-15T19:25:00;5.6;;;2.7;;
67344;SDS011;54230;52.402;6.276;2022-11-15T19:30:00;5.2;;;2.8;;
67344;SDS011;54230;52.402;6.276;2022-11-15T19:35:00;7.6;;;2.9;;
67344;SDS011;54230;52.402;6.276;2022-11-15T19:40:00;5.6;;;3.0;;
67344;SDS011;54230;52.402;6.276;2022-11-15T19:45:00;6.4;;;2.8;;
67344;SDS011;54230;52.402;6.276;2022-11-15T19:50:00;5.7;;;2.6;;
67344;SDS011;54230;52.402;6.276;2022-11-15T19:55:00;7.5;;;2.8;;
67344;SDS011;54230;52.402;6.276;2022-11-15T20:00:00;5.4;;;2.9;;
67344;SDS011;54230;52.402;6.276;2022-11-15T20:05:00;6.2;;;3.2;;
67344;SDS011;54230;52.402;6.276;2022-11-15T20:10:00;7.4;;;3.1;;
67344;SDS011;54230;52.402;6.276;2022-11-15T20:15:00;5.2;;;2.7;;
67344;SDS011;54230;52.402;6.276;2022-11-15T20:20:00;5.1;;;2.7;;
67344;SDS011;54230;52.402;6.276;2022-11-15T20:25:00;6.5;;;3.1;;
67344;SDS011;54230;52.402;6.276;2022-11-15T20:30:00;7.9;;;3.1;;
67344;SDS011;54230;52.402;6.276;2022-11-15T20:35:00;6.0;;;3.3;;
67344;SDS011;54230;52.402;6.276;2022-11-15T20:40:00;5.7;;;3.2;;
67344;SDS011;54230;52.402;6.276;2022-11-15T20:45:00;6.1;;;3.5;;
67344;SDS011;54230;52.402;6.276;2022-11-15T20:50:00;5.9;;;3.4;;
67344;SDS011;54230;52.402;6.276;2022-11-15T20:55:00;7.0;;;3.5;;
67344;SDS011;54230;52.402;6.276;2022-11-15T21:00:00;7.9;;;3.4;;
67344;SDS011;54230;52.402;6.276;2022-11-15T21:05:00;6.5;;;3.6;;
67344;SDS011;54230;52.402;6.276;2022-11-15T21:10:00;7.4;;;3.6;;
67344;SDS011;54230;52.402;6.276;2022-11-15T21:15:00;7.1;;;3.9;;
67344;SDS011;54230;52.402;6.276;2022-11-15T21:20:00;6.8;;;3.9;;
67344;SDS011;54230;52.402;6.276;2022-11-15T21:25:00;8.2;;;4.1;;
67344;SDS011;54230;52.402;6.276;2022-11-15T21:30:00;8.2;;;4.4;;
67344;SDS011;54230;52.402;6.276;2022-11-15T21:35:00;7.2;;;4.5;;
67344;SDS011;54230;52.402;6.276;2022-11-15T21:40:00;8.5;;;4.7;;
67344;SDS011;54230;52.402;6.276;2022-11-15T21:45:00;7.6;;;4.7;;
67344;SDS011;54230;52.402;6.276;2022-11-15T21:50:00;8.3;;;5.2;;
67344;SDS011;54230;52.402;6.276;2022-11-15T21:55:00;10.0;;;5.6;;
67344;SDS011;54230;52.402;6.276;2022-11-15T22:00:00;8.4;;;5.3;;
67344;SDS011;54230;52.402;6.276;2022-11-15T22:05:00;9.9;;;5.8;;
67344;SDS011;54230;52.402;6.276;2022-11-15T22:10:00;10.0;;;5.7;;
67344;SDS011;54230;52.402;6.276;2022-11-15T22:15:00;9.1;;;5.9;;
67344;SDS011;54230;52.402;6.276;2022-11-15T22:20:00;10.3;;;6.2;;
67344;SDS011;54230;52.402;6.276;2022-11-15T22:25:00;10.1;;;6.1;;
67344;SDS011;54230;52.402;6.276;2022-11-15T22:30:00;9.3;;;5.9;;
67344;SDS011;54230;52.402;6.276;2022-11-15T22:35:00;9.5;;;6.0;;
67344;SDS011;54230;52.402;6.276;2022-11-15T22:40:00;10.2;;;6.4;;
67344;SDS011;54230;52.402;6.276;2022-11-15T22:45:00;10.1;;;6.3;;
67344;SDS011;54230;52.402;6.276;2022-11-15T22:50:00;10.2;;;6.5;;
67344;SDS011;54230;52.402;6.276;2022-11-15T22:55:00;10.4;;;6.6;;
67344;SDS011;54230;52.402;6.276;2022-11-15T23:00:00;11.3;;;6.8;;
67344;SDS011;54230;52.402;6.276;2022-11-15T23:05:00;11.3;;;6.7;;
67344;SDS011;54230;52.402;6.276;2022-11-15T23:10:00;11.2;;;7.1;;
67344;SDS011;54230;52.402;6.276;2022-11-15T23:15:00;10.6;;;7.0;;
67344;SDS011;54230;52.402;6.276;2022-11-15T23:20:00;11.1;;;7.1;;
67344;SDS011;54230;52.402;6.276;2022-11-15T23:25:00;10.9;;;7.4;;
67344;SDS011;54230;52.402;6.276;2022-11-15T23:30:00;13.8;;;7.7;;
67344;SDS011;54230;52.402;6.276;2022-11-15T23:35:00;12.8;;;7.7;;
67344;SDS011;54230;52.402;6.276;2022-11-15T23:40:00;11.9;;;7.9;;
67344;SDS011;54230;52.402;6.276;2022-11-15T23:45:00;13.9;;;8.2;;
67344;SDS011;54230;52.402;6.276;2022-11-15T23:50:00;13.6;;;7.9;;
67344;SDS011;54230;52.402;6.276;2022-11-15T23:55:00;13.9;;;8.4;;
